sensor_id;sensor_type;location;lat;lon;timestamp;noise_LAeq;noise_LA_min;noise_LA_max;noise_LA01;noise_LA95
45109;Laerm;30447;48.742;8.972;2023-03-25T00:01:09;40.05;36.91;51.59;;
45109;Laerm;30447;48.742;8.972;2023-03-25T00:03:41;39.49;35.36;47.34;;
45109;Laerm;30447;48.742;8.972;2023-03-25T00:06:09;39.89;35.94;52.78;;
45109;Laerm;30447;48.742;8.972;2023-03-25T00:08:37;39.04;35.66;55.19;;
45109;Laerm;30447;48.742;8.972;2023-03-25T00:11:04;39.53;35.66;44.58;;
45109;Laerm;30447;48.742;8.972;2023-03-25T00:13:32;39.60;35.94;43.49;;
45109;Laerm;30447;48.742;8.972;2023-03-25T00:16:00;40.25;35.94;44.80;;
45109;Laerm;30447;48.742;8.972;2023-03-25T00:18:29;39.40;35.36;45.01;;
45109;Laerm;30447;48.742;8.972;2023-03-25T00:21:00;40.75;36.10;50.81;;
45109;Laerm;30447;48.742;8.972;2023-03-25T00:23:29;40.27;35.86;49.89;;
45109;Laerm;30447;48.742;8.972;2023-03-25T00:25:56;38.73;35.36;44.69;;
45109;Laerm;30447;48.742;8.972;2023-03-25T00:28:31;38.86;35.04;41.22;;
45109;Laerm;30447;48.742;8.972;2023-03-25T00:31:02;39.63;34.69;45.75;;
45109;Laerm;30447;48.742;8.972;2023-03-25T00:33:29;39.35;34.31;42.93;;
45109;Laerm;30447;48.742;8.972;2023-03-25T00:35:57;39.28;35.66;45.14;;
45109;Laerm;30447;48.742;8.972;2023-03-25T00:38:28;38.98;35.86;42.53;;
45109;Laerm;30447;48.742;8.972;2023-03-25T00:41:17;38.72;35.36;44.54;;
45109;Laerm;30447;48.742;8.972;2023-03-25T00:43:48;39.13;35.66;44.80;;
45109;Laerm;30447;48.742;8.972;2023-03-25T00:46:16;39.54;35.66;42.82;;
45109;Laerm;30447;48.742;8.972;2023-03-25T00:48:43;43.24;37.12;69.98;;
45109;Laerm;30447;48.742;8.972;2023-03-25T00:51:09;41.18;36.45;61.57;;
45109;Laerm;30447;48.742;8.972;2023-03-25T00:53:39;39.13;35.36;44.65;;
45109;Laerm;30447;48.742;8.972;2023-03-25T00:56:06;38.96;35.36;42.22;;
45109;Laerm;30447;48.742;8.972;2023-03-25T00:58:32;40.28;35.94;55.08;;
45109;Laerm;30447;48.742;8.972;2023-03-25T01:00:59;40.69;36.45;44.47;;
45109;Laerm;30447;48.742;8.972;2023-03-25T01:03:26;41.28;35.66;46.23;;
45109;Laerm;30447;48.742;8.972;2023-03-25T01:05:56;39.26;35.04;43.44;;
45109;Laerm;30447;48.742;8.972;2023-03-25T01:08:23;39.68;35.04;43.86;;
45109;Laerm;30447;48.742;8.972;2023-03-25T01:10:52;39.45;35.59;44.73;;
45109;Laerm;30447;48.742;8.972;2023-03-25T01:13:20;39.23;35.36;46.55;;
45109;Laerm;30447;48.742;8.972;2023-03-25T01:15:47;40.25;36.45;45.30;;
45109;Laerm;30447;48.742;8.972;2023-03-25T01:18:14;39.07;35.66;43.86;;
45109;Laerm;30447;48.742;8.972;2023-03-25T01:20:41;39.18;35.36;46.62;;
45109;Laerm;30447;48.742;8.972;2023-03-25T01:23:07;39.19;34.69;53.53;;
45109;Laerm;30447;48.742;8.972;2023-03-25T01:25:35;38.87;35.36;43.99;;
45109;Laerm;30447;48.742;8.972;2023-03-25T01:28:03;38.53;34.31;40.89;;
45109;Laerm;30447;48.742;8.972;2023-03-25T01:30:30;38.64;34.69;42.88;;
45109;Laerm;30447;48.742;8.972;2023-03-25T01:32:56;38.25;33.90;41.14;;
45109;Laerm;30447;48.742;8.972;2023-03-25T01:35:23;38.42;33.90;41.22;;
45109;Laerm;30447;48.742;8.972;2023-03-25T01:37:49;39.90;33.90;44.39;;
45109;Laerm;30447;48.742;8.972;2023-03-25T01:40:18;40.48;34.69;47.79;;
45109;Laerm;30447;48.742;8.972;2023-03-25T01:42:45;38.77;34.69;45.39;;
45109;Laerm;30447;48.742;8.972;2023-03-25T01:45:20;38.97;35.04;44.47;;
45109;Laerm;30447;48.742;8.972;2023-03-25T01:48:01;40.11;35.94;52.74;;
45109;Laerm;30447;48.742;8.972;2023-03-25T01:50:30;40.33;36.20;45.66;;
45109;Laerm;30447;48.742;8.972;2023-03-25T01:53:01;39.66;35.66;43.63;;
45109;Laerm;30447;48.742;8.972;2023-03-25T01:55:30;38.60;35.04;41.06;;
45109;Laerm;30447;48.742;8.972;2023-03-25T01:58:02;38.91;33.90;42.09;;
45109;Laerm;30447;48.742;8.972;2023-03-25T02:00:30;38.86;35.01;42.59;;
45109;Laerm;30447;48.742;8.972;2023-03-25T02:02:58;39.03;34.69;45.34;;
45109;Laerm;30447;48.742;8.972;2023-03-25T02:05:54;38.65;35.36;42.22;;
45109;Laerm;30447;48.742;8.972;2023-03-25T02:08:22;38.69;35.04;43.60;;
45109;Laerm;30447;48.742;8.972;2023-03-25T02:10:51;38.51;34.69;41.61;;
45109;Laerm;30447;48.742;8.972;2023-03-25T02:13:19;38.44;33.90;42.65;;
45109;Laerm;30447;48.742;8.972;2023-03-25T02:27:07;38.95;34.69;45.63;;
45109;Laerm;30447;48.742;8.972;2023-03-25T02:30:20;40.03;35.66;45.67;;
45109;Laerm;30447;48.742;8.972;2023-03-25T02:36:19;44.43;38.05;61.72;;
45109;Laerm;30447;48.742;8.972;2023-03-25T02:39:03;45.58;38.52;64.19;;
45109;Laerm;30447;48.742;8.972;2023-03-25T02:42:02;42.18;37.88;54.21;;
45109;Laerm;30447;48.742;8.972;2023-03-25T02:44:51;42.57;37.12;51.75;;
45109;Laerm;30447;48.742;8.972;2023-03-25T02:47:23;41.66;36.45;54.70;;
45109;Laerm;30447;48.742;8.972;2023-03-25T02:49:57;39.28;34.34;48.37;;
45109;Laerm;30447;48.742;8.972;2023-03-25T02:52:40;38.91;34.69;43.99;;
45109;Laerm;30447;48.742;8.972;2023-03-25T02:55:12;39.03;35.04;44.47;;
45109;Laerm;30447;48.742;8.972;2023-03-25T02:57:44;39.08;35.04;44.86;;
45109;Laerm;30447;48.742;8.972;2023-03-25T03:00:15;38.80;35.04;46.71;;
45109;Laerm;30447;48.742;8.972;2023-03-25T03:02:50;39.10;35.36;44.47;;
45109;Laerm;30447;48.742;8.972;2023-03-25T03:05:26;38.78;35.36;42.09;;
45109;Laerm;30447;48.742;8.972;2023-03-25T03:14:00;39.73;36.20;44.11;;
45109;Laerm;30447;48.742;8.972;2023-03-25T03:19:57;39.13;35.66;43.14;;
45109;Laerm;30447;48.742;8.972;2023-03-25T03:25:09;39.86;35.66;43.49;;
45109;Laerm;30447;48.742;8.972;2023-03-25T03:27:47;39.71;36.45;50.13;;
45109;Laerm;30447;48.742;8.972;2023-03-25T03:30:30;39.44;35.66;42.88;;
45109;Laerm;30447;48.742;8.972;2023-03-25T03:35:49;38.68;34.31;43.58;;
45109;Laerm;30447;48.742;8.972;2023-03-25T03:38:27;39.21;35.04;41.89;;
45109;Laerm;30447;48.742;8.972;2023-03-25T03:40:59;39.40;36.20;43.09;;
45109;Laerm;30447;48.742;8.972;2023-03-25T03:43:35;41.88;36.20;49.14;;
45109;Laerm;30447;48.742;8.972;2023-03-25T03:46:10;42.12;35.94;51.67;;
45109;Laerm;30447;48.742;8.972;2023-03-25T03:48:50;39.42;34.69;43.34;;
45109;Laerm;30447;48.742;8.972;2023-03-25T03:51:27;39.10;35.31;42.74;;
45109;Laerm;30447;48.742;8.972;2023-03-25T03:54:05;39.42;35.36;43.81;;
45109;Laerm;30447;48.742;8.972;2023-03-25T03:56:42;38.97;35.04;41.89;;
45109;Laerm;30447;48.742;8.972;2023-03-25T04:02:34;39.80;35.36;45.45;;
45109;Laerm;30447;48.742;8.972;2023-03-25T04:04:59;38.85;35.36;43.19;;
45109;Laerm;30447;48.742;8.972;2023-03-25T04:08:13;38.94;35.66;41.38;;
45109;Laerm;30447;48.742;8.972;2023-03-25T04:11:09;39.24;36.20;47.95;;
45109;Laerm;30447;48.742;8.972;2023-03-25T04:13:41;39.73;35.94;49.80;;
45109;Laerm;30447;48.742;8.972;2023-03-25T04:16:09;39.53;35.94;42.93;;
45109;Laerm;30447;48.742;8.972;2023-03-25T04:18:36;39.85;36.20;43.09;;
45109;Laerm;30447;48.742;8.972;2023-03-25T04:21:02;43.28;37.88;53.44;;
45109;Laerm;30447;48.742;8.972;2023-03-25T04:23:29;45.31;37.12;56.82;;
45109;Laerm;30447;48.742;8.972;2023-03-25T04:25:56;41.62;36.69;53.10;;
45109;Laerm;30447;48.742;8.972;2023-03-25T04:28:23;41.74;36.45;53.13;;
45109;Laerm;30447;48.742;8.972;2023-03-25T04:30:50;44.16;40.33;54.95;;
45109;Laerm;30447;48.742;8.972;2023-03-25T04:33:21;43.99;39.58;56.00;;
45109;Laerm;30447;48.742;8.972;2023-03-25T04:35:48;43.85;38.21;56.10;;
45109;Laerm;30447;48.742;8.972;2023-03-25T04:38:19;52.85;37.12;69.34;;
45109;Laerm;30447;48.742;8.972;2023-03-25T04:40:46;53.12;38.37;67.30;;
45109;Laerm;30447;48.742;8.972;2023-03-25T04:43:13;52.00;38.95;67.38;;
45109;Laerm;30447;48.742;8.972;2023-03-25T04:45:40;42.96;38.21;58.73;;
45109;Laerm;30447;48.742;8.972;2023-03-25T04:48:23;45.37;37.32;61.39;;
45109;Laerm;30447;48.742;8.972;2023-03-25T04:50:58;43.02;37.12;54.30;;
45109;Laerm;30447;48.742;8.972;2023-03-25T04:53:25;42.61;36.45;54.29;;
45109;Laerm;30447;48.742;8.972;2023-03-25T04:55:53;42.18;37.12;57.11;;
45109;Laerm;30447;48.742;8.972;2023-03-25T04:58:19;40.92;36.91;51.87;;
45109;Laerm;30447;48.742;8.972;2023-03-25T05:00:50;42.54;36.69;58.07;;
45109;Laerm;30447;48.742;8.972;2023-03-25T05:03:18;40.66;37.12;54.12;;
45109;Laerm;30447;48.742;8.972;2023-03-25T05:05:50;40.63;37.32;53.68;;
45109;Laerm;30447;48.742;8.972;2023-03-25T05:08:16;40.61;37.12;46.84;;
45109;Laerm;30447;48.742;8.972;2023-03-25T05:10:43;40.31;36.69;43.77;;
45109;Laerm;30447;48.742;8.972;2023-03-25T05:13:10;40.26;36.91;47.90;;
45109;Laerm;30447;48.742;8.972;2023-03-25T05:15:37;40.34;36.69;46.40;;
45109;Laerm;30447;48.742;8.972;2023-03-25T05:18:09;41.21;37.32;46.59;;
45109;Laerm;30447;48.742;8.972;2023-03-25T05:20:39;40.96;37.52;51.59;;
45109;Laerm;30447;48.742;8.972;2023-03-25T05:23:11;42.30;37.52;60.71;;
45109;Laerm;30447;48.742;8.972;2023-03-25T05:25:42;40.99;37.12;52.85;;
45109;Laerm;30447;48.742;8.972;2023-03-25T05:28:09;41.31;37.32;58.03;;
45109;Laerm;30447;48.742;8.972;2023-03-25T05:30:42;40.53;37.88;44.27;;
45109;Laerm;30447;48.742;8.972;2023-03-25T05:33:13;40.65;36.69;51.47;;
45109;Laerm;30447;48.742;8.972;2023-03-25T05:35:40;40.67;36.91;44.54;;
45109;Laerm;30447;48.742;8.972;2023-03-25T05:38:08;40.70;37.70;51.22;;
45109;Laerm;30447;48.742;8.972;2023-03-25T05:40:38;40.80;37.70;53.50;;
45109;Laerm;30447;48.742;8.972;2023-03-25T05:43:06;44.23;37.35;56.21;;
45109;Laerm;30447;48.742;8.972;2023-03-25T05:45:33;45.18;38.05;58.82;;
45109;Laerm;30447;48.742;8.972;2023-03-25T05:48:01;41.28;38.05;45.48;;
45109;Laerm;30447;48.742;8.972;2023-03-25T05:50:28;41.48;38.02;55.50;;
45109;Laerm;30447;48.742;8.972;2023-03-25T05:52:55;39.99;36.20;44.83;;
45109;Laerm;30447;48.742;8.972;2023-03-25T05:55:22;40.53;36.91;52.37;;
45109;Laerm;30447;48.742;8.972;2023-03-25T05:57:49;40.55;36.69;52.33;;
45109;Laerm;30447;48.742;8.972;2023-03-25T06:00:18;40.39;36.45;51.29;;
45109;Laerm;30447;48.742;8.972;2023-03-25T06:02:47;41.46;36.91;57.81;;
45109;Laerm;30447;48.742;8.972;2023-03-25T06:05:15;40.70;36.69;49.46;;
45109;Laerm;30447;48.742;8.972;2023-03-25T06:07:44;40.61;36.91;51.47;;
45109;Laerm;30447;48.742;8.972;2023-03-25T06:10:13;41.32;37.70;47.67;;
45109;Laerm;30447;48.742;8.972;2023-03-25T06:12:44;41.44;38.21;48.81;;
45109;Laerm;30447;48.742;8.972;2023-03-25T06:15:14;42.03;38.21;52.75;;
45109;Laerm;30447;48.742;8.972;2023-03-25T06:17:43;40.74;36.91;50.98;;
45109;Laerm;30447;48.742;8.972;2023-03-25T06:20:13;41.18;36.45;58.47;;
45109;Laerm;30447;48.742;8.972;2023-03-25T06:22:43;41.85;37.32;53.48;;
45109;Laerm;30447;48.742;8.972;2023-03-25T06:25:12;41.35;37.88;52.89;;
45109;Laerm;30447;48.742;8.972;2023-03-25T06:27:39;40.55;37.32;51.17;;
45109;Laerm;30447;48.742;8.972;2023-03-25T06:30:10;40.60;37.12;50.52;;
45109;Laerm;30447;48.742;8.972;2023-03-25T06:32:37;41.30;36.45;53.48;;
45109;Laerm;30447;48.742;8.972;2023-03-25T06:35:07;41.86;38.05;54.52;;
45109;Laerm;30447;48.742;8.972;2023-03-25T06:37:35;41.03;37.32;56.11;;
45109;Laerm;30447;48.742;8.972;2023-03-25T06:40:03;43.82;37.70;54.98;;
45109;Laerm;30447;48.742;8.972;2023-03-25T06:42:31;41.78;38.37;46.07;;
45109;Laerm;30447;48.742;8.972;2023-03-25T06:44:57;41.49;38.05;57.29;;
45109;Laerm;30447;48.742;8.972;2023-03-25T06:47:25;42.90;38.37;51.59;;
45109;Laerm;30447;48.742;8.972;2023-03-25T06:49:51;41.13;38.37;45.14;;
45109;Laerm;30447;48.742;8.972;2023-03-25T06:52:17;41.39;38.21;50.81;;
45109;Laerm;30447;48.742;8.972;2023-03-25T06:54:44;42.33;38.37;53.53;;
45109;Laerm;30447;48.742;8.972;2023-03-25T06:57:10;41.76;38.21;58.66;;
45109;Laerm;30447;48.742;8.972;2023-03-25T06:59:37;42.59;38.52;54.84;;
45109;Laerm;30447;48.742;8.972;2023-03-25T07:02:03;42.57;40.13;53.31;;
45109;Laerm;30447;48.742;8.972;2023-03-25T07:04:29;43.54;40.03;48.26;;
45109;Laerm;30447;48.742;8.972;2023-03-25T07:06:56;44.12;40.80;62.71;;
45109;Laerm;30447;48.742;8.972;2023-03-25T07:09:23;41.99;38.81;51.74;;
45109;Laerm;30447;48.742;8.972;2023-03-25T07:11:49;41.18;37.12;56.02;;
45109;Laerm;30447;48.742;8.972;2023-03-25T07:14:15;41.10;37.70;58.47;;
45109;Laerm;30447;48.742;8.972;2023-03-25T07:16:42;41.30;37.70;53.95;;
45109;Laerm;30447;48.742;8.972;2023-03-25T07:19:08;45.08;37.70;71.70;;
45109;Laerm;30447;48.742;8.972;2023-03-25T07:21:35;42.16;38.37;53.97;;
45109;Laerm;30447;48.742;8.972;2023-03-25T07:24:01;42.69;38.67;55.68;;
45109;Laerm;30447;48.742;8.972;2023-03-25T07:26:28;44.96;38.67;68.03;;
45109;Laerm;30447;48.742;8.972;2023-03-25T07:28:54;40.81;37.70;47.77;;
45109;Laerm;30447;48.742;8.972;2023-03-25T07:31:21;42.03;38.05;51.38;;
45109;Laerm;30447;48.742;8.972;2023-03-25T07:33:47;41.44;38.67;48.66;;
45109;Laerm;30447;48.742;8.972;2023-03-25T07:36:14;41.68;38.37;48.99;;
45109;Laerm;30447;48.742;8.972;2023-03-25T07:38:40;41.68;37.52;55.19;;
45109;Laerm;30447;48.742;8.972;2023-03-25T07:41:11;41.93;37.88;50.82;;
45109;Laerm;30447;48.742;8.972;2023-03-25T07:43:38;42.92;39.58;52.68;;
45109;Laerm;30447;48.742;8.972;2023-03-25T07:46:05;41.76;38.67;50.69;;
45109;Laerm;30447;48.742;8.972;2023-03-25T07:48:31;41.65;37.70;51.92;;
45109;Laerm;30447;48.742;8.972;2023-03-25T07:50:58;42.01;38.81;53.64;;
45109;Laerm;30447;48.742;8.972;2023-03-25T07:53:24;42.21;39.21;55.33;;
45109;Laerm;30447;48.742;8.972;2023-03-25T07:55:51;43.21;38.95;57.72;;
45109;Laerm;30447;48.742;8.972;2023-03-25T07:58:18;41.38;38.37;49.67;;
45109;Laerm;30447;48.742;8.972;2023-03-25T08:00:45;42.90;39.21;51.14;;
45109;Laerm;30447;48.742;8.972;2023-03-25T08:03:13;42.02;39.58;49.10;;
45109;Laerm;30447;48.742;8.972;2023-03-25T08:05:47;41.07;38.05;52.28;;
45109;Laerm;30447;48.742;8.972;2023-03-25T08:08:14;41.05;37.88;58.92;;
45109;Laerm;30447;48.742;8.972;2023-03-25T08:10:42;42.81;38.05;56.21;;
45109;Laerm;30447;48.742;8.972;2023-03-25T08:13:09;41.92;38.37;47.77;;
45109;Laerm;30447;48.742;8.972;2023-03-25T08:15:37;41.37;38.05;44.69;;
45109;Laerm;30447;48.742;8.972;2023-03-25T08:18:04;41.87;38.81;45.51;;
45109;Laerm;30447;48.742;8.972;2023-03-25T08:20:35;42.88;38.67;54.81;;
45109;Laerm;30447;48.742;8.972;2023-03-25T08:23:01;41.97;38.67;54.92;;
45109;Laerm;30447;48.742;8.972;2023-03-25T08:25:29;42.32;39.34;48.36;;
45109;Laerm;30447;48.742;8.972;2023-03-25T08:27:56;44.03;40.62;52.75;;
45109;Laerm;30447;48.742;8.972;2023-03-25T08:30:23;46.84;43.44;56.12;;
45109;Laerm;30447;48.742;8.972;2023-03-25T08:32:49;47.47;44.31;53.87;;
45109;Laerm;30447;48.742;8.972;2023-03-25T08:35:22;46.79;43.81;55.90;;
45109;Laerm;30447;48.742;8.972;2023-03-25T08:37:50;48.22;44.03;59.08;;
45109;Laerm;30447;48.742;8.972;2023-03-25T08:40:16;43.21;38.67;60.08;;
45109;Laerm;30447;48.742;8.972;2023-03-25T08:42:43;41.70;37.70;55.88;;
45109;Laerm;30447;48.742;8.972;2023-03-25T08:45:10;41.46;37.52;51.47;;
45109;Laerm;30447;48.742;8.972;2023-03-25T08:47:37;46.88;39.46;64.22;;
45109;Laerm;30447;48.742;8.972;2023-03-25T08:50:04;44.06;39.08;57.64;;
45109;Laerm;30447;48.742;8.972;2023-03-25T08:52:32;42.75;38.67;51.11;;
45109;Laerm;30447;48.742;8.972;2023-03-25T08:54:59;43.62;39.70;49.59;;
45109;Laerm;30447;48.742;8.972;2023-03-25T08:57:25;48.90;44.31;55.43;;
45109;Laerm;30447;48.742;8.972;2023-03-25T08:59:51;50.17;46.66;59.87;;
45109;Laerm;30447;48.742;8.972;2023-03-25T09:02:18;49.40;46.66;53.39;;
45109;Laerm;30447;48.742;8.972;2023-03-25T09:04:47;48.57;41.53;62.21;;
45109;Laerm;30447;48.742;8.972;2023-03-25T09:07:13;41.63;38.37;55.11;;
45109;Laerm;30447;48.742;8.972;2023-03-25T09:09:41;41.07;37.70;50.25;;
45109;Laerm;30447;48.742;8.972;2023-03-25T09:12:07;41.51;37.32;59.72;;
45109;Laerm;30447;48.742;8.972;2023-03-25T09:14:34;45.29;37.12;67.26;;
45109;Laerm;30447;48.742;8.972;2023-03-25T09:17:00;64.62;38.37;93.35;;
45109;Laerm;30447;48.742;8.972;2023-03-25T09:19:27;42.53;37.88;53.02;;
45109;Laerm;30447;48.742;8.972;2023-03-25T09:21:53;41.86;37.32;57.57;;
45109;Laerm;30447;48.742;8.972;2023-03-25T09:24:19;44.81;37.32;60.20;;
45109;Laerm;30447;48.742;8.972;2023-03-25T09:26:47;43.65;37.32;57.04;;
45109;Laerm;30447;48.742;8.972;2023-03-25T09:29:14;41.84;37.32;59.82;;
45109;Laerm;30447;48.742;8.972;2023-03-25T09:31:40;42.82;38.05;52.99;;
45109;Laerm;30447;48.742;8.972;2023-03-25T09:34:07;41.68;37.52;57.47;;
45109;Laerm;30447;48.742;8.972;2023-03-25T09:36:33;43.39;37.70;58.85;;
45109;Laerm;30447;48.742;8.972;2023-03-25T09:39:00;51.50;38.05;78.26;;
45109;Laerm;30447;48.742;8.972;2023-03-25T09:41:39;44.11;37.12;69.39;;
45109;Laerm;30447;48.742;8.972;2023-03-25T09:44:18;41.07;38.05;54.96;;
45109;Laerm;30447;48.742;8.972;2023-03-25T09:46:48;41.71;38.95;49.84;;
45109;Laerm;30447;48.742;8.972;2023-03-25T09:49:22;43.12;39.08;57.94;;
45109;Laerm;30447;48.742;8.972;2023-03-25T09:51:53;45.53;39.70;57.48;;
45109;Laerm;30447;48.742;8.972;2023-03-25T09:54:30;45.58;39.70;57.20;;
45109;Laerm;30447;48.742;8.972;2023-03-25T09:57:07;44.39;41.06;57.02;;
45109;Laerm;30447;48.742;8.972;2023-03-25T09:59:43;44.33;41.30;57.71;;
45109;Laerm;30447;48.742;8.972;2023-03-25T10:02:40;42.80;39.81;56.01;;
45109;Laerm;30447;48.742;8.972;2023-03-25T10:11:20;48.42;39.21;63.93;;
45109;Laerm;30447;48.742;8.972;2023-03-25T10:21:54;43.53;39.34;58.93;;
45109;Laerm;30447;48.742;8.972;2023-03-25T10:24:43;46.04;40.53;69.59;;
45109;Laerm;30447;48.742;8.972;2023-03-25T10:27:21;47.99;40.03;66.32;;
45109;Laerm;30447;48.742;8.972;2023-03-25T10:32:45;42.67;39.08;54.43;;
45109;Laerm;30447;48.742;8.972;2023-03-25T10:35:17;47.91;40.13;62.63;;
45109;Laerm;30447;48.742;8.972;2023-03-25T10:37:48;44.72;40.71;60.52;;
45109;Laerm;30447;48.742;8.972;2023-03-25T10:40:28;44.48;39.81;60.70;;
45109;Laerm;30447;48.742;8.972;2023-03-25T10:45:40;43.57;39.92;57.04;;
45109;Laerm;30447;48.742;8.972;2023-03-25T10:48:25;47.99;41.14;67.22;;
45109;Laerm;30447;48.742;8.972;2023-03-25T10:51:11;42.90;39.92;52.57;;
45109;Laerm;30447;48.742;8.972;2023-03-25T10:53:40;42.90;39.46;55.92;;
45109;Laerm;30447;48.742;8.972;2023-03-25T10:56:17;42.57;38.05;50.04;;
45109;Laerm;30447;48.742;8.972;2023-03-25T10:58:49;42.16;38.95;57.41;;
45109;Laerm;30447;48.742;8.972;2023-03-25T11:01:21;44.93;39.46;60.60;;
45109;Laerm;30447;48.742;8.972;2023-03-25T11:03:54;46.58;41.22;62.43;;
45109;Laerm;30447;48.742;8.972;2023-03-25T11:06:26;43.50;40.43;53.20;;
45109;Laerm;30447;48.742;8.972;2023-03-25T11:11:34;45.96;41.61;63.17;;
45109;Laerm;30447;48.742;8.972;2023-03-25T11:14:02;43.95;40.62;55.37;;
45109;Laerm;30447;48.742;8.972;2023-03-25T11:16:35;45.12;40.53;55.68;;
45109;Laerm;30447;48.742;8.972;2023-03-25T11:19:06;44.84;40.43;65.18;;
45109;Laerm;30447;48.742;8.972;2023-03-25T11:21:34;44.86;40.62;59.15;;
45109;Laerm;30447;48.742;8.972;2023-03-25T11:24:05;47.43;40.71;62.60;;
45109;Laerm;30447;48.742;8.972;2023-03-25T11:26:38;43.97;40.71;53.60;;
45109;Laerm;30447;48.742;8.972;2023-03-25T11:29:11;50.52;40.62;72.28;;
45109;Laerm;30447;48.742;8.972;2023-03-25T11:31:41;44.22;40.43;62.88;;
45109;Laerm;30447;48.742;8.972;2023-03-25T11:34:21;43.06;39.92;54.72;;
45109;Laerm;30447;48.742;8.972;2023-03-25T11:39:40;44.96;39.81;69.23;;
45109;Laerm;30447;48.742;8.972;2023-03-25T11:44:51;47.05;40.33;61.08;;
45109;Laerm;30447;48.742;8.972;2023-03-25T11:47:30;43.47;39.70;56.42;;
45109;Laerm;30447;48.742;8.972;2023-03-25T11:49:59;44.84;40.80;58.52;;
45109;Laerm;30447;48.742;8.972;2023-03-25T11:52:36;46.48;40.23;64.63;;
45109;Laerm;30447;48.742;8.972;2023-03-25T11:55:14;48.10;41.06;64.02;;
45109;Laerm;30447;48.742;8.972;2023-03-25T11:57:44;44.61;40.43;64.12;;
45109;Laerm;30447;48.742;8.972;2023-03-25T12:03:02;43.68;40.89;56.87;;
45109;Laerm;30447;48.742;8.972;2023-03-25T12:05:30;43.37;39.46;52.87;;
45109;Laerm;30447;48.742;8.972;2023-03-25T12:08:08;43.06;39.08;51.97;;
45109;Laerm;30447;48.742;8.972;2023-03-25T12:10:46;44.13;39.70;60.07;;
45109;Laerm;30447;48.742;8.972;2023-03-25T12:13:17;42.93;38.81;59.76;;
45109;Laerm;30447;48.742;8.972;2023-03-25T12:15:58;43.00;38.81;58.42;;
45109;Laerm;30447;48.742;8.972;2023-03-25T12:21:11;45.97;40.23;66.89;;
45109;Laerm;30447;48.742;8.972;2023-03-25T12:32:23;47.24;40.62;64.87;;
45109;Laerm;30447;48.742;8.972;2023-03-25T12:41:12;50.50;41.96;69.60;;
45109;Laerm;30447;48.742;8.972;2023-03-25T12:43:57;44.41;41.38;57.06;;
45109;Laerm;30447;48.742;8.972;2023-03-25T12:46:59;43.69;38.05;59.20;;
45109;Laerm;30447;48.742;8.972;2023-03-25T12:49:46;41.22;38.21;48.05;;
45109;Laerm;30447;48.742;8.972;2023-03-25T12:55:23;42.05;39.21;49.60;;
45109;Laerm;30447;48.742;8.972;2023-03-25T12:58:23;41.75;38.21;55.14;;
45109;Laerm;30447;48.742;8.972;2023-03-25T13:06:16;42.93;39.46;58.28;;
45109;Laerm;30447;48.742;8.972;2023-03-25T13:11:34;43.07;39.08;62.20;;
45109;Laerm;30447;48.742;8.972;2023-03-25T13:14:15;42.00;38.05;55.92;;
45109;Laerm;30447;48.742;8.972;2023-03-25T13:16:44;42.89;39.08;50.55;;
45109;Laerm;30447;48.742;8.972;2023-03-25T13:19:17;42.72;39.81;53.39;;
45109;Laerm;30447;48.742;8.972;2023-03-25T13:21:51;43.38;38.37;61.63;;
45109;Laerm;30447;48.742;8.972;2023-03-25T13:24:38;42.49;38.95;63.17;;
45109;Laerm;30447;48.742;8.972;2023-03-25T13:27:10;44.21;37.88;63.45;;
45109;Laerm;30447;48.742;8.972;2023-03-25T13:29:45;45.58;38.81;60.54;;
45109;Laerm;30447;48.742;8.972;2023-03-25T13:32:22;42.53;39.08;57.19;;
45109;Laerm;30447;48.742;8.972;2023-03-25T13:35:17;48.21;39.92;65.90;;
45109;Laerm;30447;48.742;8.972;2023-03-25T13:37:49;43.13;39.46;50.10;;
45109;Laerm;30447;48.742;8.972;2023-03-25T13:40:26;44.07;39.78;60.06;;
45109;Laerm;30447;48.742;8.972;2023-03-25T13:43:11;45.82;39.08;58.56;;
45109;Laerm;30447;48.742;8.972;2023-03-25T13:50:59;50.18;37.52;70.03;;
45109;Laerm;30447;48.742;8.972;2023-03-25T14:07:21;44.50;41.06;57.77;;
45109;Laerm;30447;48.742;8.972;2023-03-25T14:12:48;47.32;40.71;64.89;;
45109;Laerm;30447;48.742;8.972;2023-03-25T14:15:22;48.86;41.38;66.53;;
45109;Laerm;30447;48.742;8.972;2023-03-25T14:17:50;49.37;41.14;69.05;;
45109;Laerm;30447;48.742;8.972;2023-03-25T14:20:22;45.98;40.03;64.25;;
45109;Laerm;30447;48.742;8.972;2023-03-25T14:22:56;44.97;40.13;64.82;;
45109;Laerm;30447;48.742;8.972;2023-03-25T14:25:35;43.97;39.21;56.95;;
45109;Laerm;30447;48.742;8.972;2023-03-25T14:28:04;43.03;39.08;55.47;;
45109;Laerm;30447;48.742;8.972;2023-03-25T14:30:33;42.40;38.95;53.08;;
45109;Laerm;30447;48.742;8.972;2023-03-25T14:33:00;41.65;38.05;53.22;;
45109;Laerm;30447;48.742;8.972;2023-03-25T14:43:31;43.56;37.70;64.90;;
45109;Laerm;30447;48.742;8.972;2023-03-25T14:59:26;43.69;38.21;63.36;;
45109;Laerm;30447;48.742;8.972;2023-03-25T15:02:02;44.40;39.34;60.08;;
45109;Laerm;30447;48.742;8.972;2023-03-25T15:04:33;41.68;36.69;58.76;;
45109;Laerm;30447;48.742;8.972;2023-03-25T15:07:09;41.49;37.53;54.41;;
45109;Laerm;30447;48.742;8.972;2023-03-25T15:09:51;41.12;37.70;51.70;;
45109;Laerm;30447;48.742;8.972;2023-03-25T15:12:23;42.55;38.67;56.41;;
45109;Laerm;30447;48.742;8.972;2023-03-25T15:14:55;41.32;37.88;48.29;;
45109;Laerm;30447;48.742;8.972;2023-03-25T15:17:44;41.69;38.05;53.82;;
45109;Laerm;30447;48.742;8.972;2023-03-25T15:20:32;44.38;38.37;67.94;;
45109;Laerm;30447;48.742;8.972;2023-03-25T15:23:20;45.56;39.58;62.16;;
45109;Laerm;30447;48.742;8.972;2023-03-25T15:25:55;44.36;39.92;56.32;;
45109;Laerm;30447;48.742;8.972;2023-03-25T15:31:37;43.55;39.34;57.31;;
45109;Laerm;30447;48.742;8.972;2023-03-25T15:34:22;42.71;37.12;60.90;;
45109;Laerm;30447;48.742;8.972;2023-03-25T15:48:30;42.25;38.95;50.98;;
45109;Laerm;30447;48.742;8.972;2023-03-25T15:57:24;42.14;39.08;55.77;;
45109;Laerm;30447;48.742;8.972;2023-03-25T16:00:13;44.23;39.70;61.96;;
45109;Laerm;30447;48.742;8.972;2023-03-25T16:03:05;45.22;41.06;57.92;;
45109;Laerm;30447;48.742;8.972;2023-03-25T16:05:38;49.07;41.89;66.54;;
45109;Laerm;30447;48.742;8.972;2023-03-25T16:08:17;43.64;39.81;56.57;;
45109;Laerm;30447;48.742;8.972;2023-03-25T16:10:44;45.43;39.81;64.86;;
45109;Laerm;30447;48.742;8.972;2023-03-25T16:13:14;42.85;39.58;53.35;;
45109;Laerm;30447;48.742;8.972;2023-03-25T16:15:55;45.16;39.58;59.36;;
45109;Laerm;30447;48.742;8.972;2023-03-25T16:18:23;46.09;40.80;62.66;;
45109;Laerm;30447;48.742;8.972;2023-03-25T16:20:57;44.82;40.03;59.91;;
45109;Laerm;30447;48.742;8.972;2023-03-25T16:23:26;42.79;38.67;53.12;;
45109;Laerm;30447;48.742;8.972;2023-03-25T16:25:52;44.37;40.03;57.08;;
45109;Laerm;30447;48.742;8.972;2023-03-25T16:28:38;50.34;40.98;68.61;;
45109;Laerm;30447;48.742;8.972;2023-03-25T16:31:29;49.69;39.21;71.15;;
45109;Laerm;30447;48.742;8.972;2023-03-25T16:33:58;43.58;39.34;64.22;;
45109;Laerm;30447;48.742;8.972;2023-03-25T16:36:27;45.20;39.81;65.23;;
45109;Laerm;30447;48.742;8.972;2023-03-25T16:38:56;45.70;39.34;64.47;;
45109;Laerm;30447;48.742;8.972;2023-03-25T16:41:23;45.42;39.21;60.78;;
45109;Laerm;30447;48.742;8.972;2023-03-25T16:43:49;45.68;38.67;63.68;;
45109;Laerm;30447;48.742;8.972;2023-03-25T16:46:20;44.76;38.21;63.04;;